sensor_id;sensor_type;location;lat;lon;timestamp;pressure;altitude;pressure_sealevel;temperature;humidity
20622;BME280;10470;42.670;23.354;2023-02-03T00:00:29;95031.72;;;3.17;100.00
20622;BME280;10470;42.670;23.354;2023-02-03T00:03:16;95031.38;;;3.12;100.00
20622;BME280;10470;42.670;23.354;2023-02-03T00:06:01;95032.94;;;3.05;100.00
20622;BME280;10470;42.670;23.354;2023-02-03T00:08:47;95038.63;;;3.18;100.00
20622;BME280;10470;42.670;23.354;2023-02-03T00:11:33;95043.69;;;3.05;100.00
20622;BME280;10470;42.670;23.354;2023-02-03T00:14:19;95044.09;;;3.00;100.00
20622;BME280;10470;42.670;23.354;2023-02-03T00:17:04;95049.50;;;3.04;100.00
20622;BME280;10470;42.670;23.354;2023-02-03T00:19:50;95046.78;;;3.00;100.00
20622;BME280;10470;42.670;23.354;2023-02-03T00:22:36;95036.41;;;3.02;100.00
20622;BME280;10470;42.670;23.354;2023-02-03T00:25:24;95036.78;;;3.04;100.00
20622;BME280;10470;42.670;23.354;2023-02-03T00:28:09;95035.72;;;2.84;100.00
20622;BME280;10470;42.670;23.354;2023-02-03T00:30:55;95054.94;;;2.86;100.00
20622;BME280;10470;42.670;23.354;2023-02-03T00:33:40;95056.53;;;2.73;100.00
20622;BME280;10470;42.670;23.354;2023-02-03T00:36:26;95049.53;;;2.90;100.00
20622;BME280;10470;42.670;23.354;2023-02-03T00:39:11;95057.28;;;2.70;100.00
20622;BME280;10470;42.670;23.354;2023-02-03T00:41:57;95054.22;;;2.68;100.00
20622;BME280;10470;42.670;23.354;2023-02-03T00:44:42;95051.91;;;2.73;100.00
20622;BME280;10470;42.670;23.354;2023-02-03T00:47:28;95061.47;;;2.81;100.00
20622;BME280;10470;42.670;23.354;2023-02-03T00:50:13;95064.97;;;2.71;100.00
20622;BME280;10470;42.670;23.354;2023-02-03T00:52:59;95055.00;;;2.61;100.00
20622;BME280;10470;42.670;23.354;2023-02-03T00:55:44;95056.94;;;2.53;100.00
20622;BME280;10470;42.670;23.354;2023-02-03T00:58:30;95056.94;;;2.68;100.00
20622;BME280;10470;42.670;23.354;2023-02-03T01:01:15;95059.59;;;2.71;100.00
20622;BME280;10470;42.670;23.354;2023-02-03T01:04:01;95062.25;;;2.75;100.00
20622;BME280;10470;42.670;23.354;2023-02-03T01:06:47;95073.06;;;2.60;100.00
20622;BME280;10470;42.670;23.354;2023-02-03T01:09:33;95074.63;;;2.54;100.00
20622;BME280;10470;42.670;23.354;2023-02-03T01:12:19;95067.75;;;2.43;100.00
20622;BME280;10470;42.670;23.354;2023-02-03T01:15:04;95071.56;;;2.52;100.00
20622;BME280;10470;42.670;23.354;2023-02-03T01:17:50;95058.88;;;2.53;100.00
20622;BME280;10470;42.670;23.354;2023-02-03T01:20:36;95064.25;;;2.46;100.00
20622;BME280;10470;42.670;23.354;2023-02-03T01:23:21;95067.31;;;2.51;100.00
20622;BME280;10470;42.670;23.354;2023-02-03T01:26:10;95053.91;;;2.48;100.00
20622;BME280;10470;42.670;23.354;2023-02-03T01:28:57;95046.53;;;2.70;100.00
20622;BME280;10470;42.670;23.354;2023-02-03T01:31:43;95045.47;;;2.42;100.00
20622;BME280;10470;42.670;23.354;2023-02-03T01:34:29;95050.47;;;2.40;100.00
20622;BME280;10470;42.670;23.354;2023-02-03T01:37:14;95052.75;;;2.38;100.00
20622;BME280;10470;42.670;23.354;2023-02-03T01:40:02;95058.91;;;2.42;100.00
20622;BME280;10470;42.670;23.354;2023-02-03T01:42:47;95068.50;;;2.36;100.00
20622;BME280;10470;42.670;23.354;2023-02-03T01:45:33;95076.97;;;2.38;100.00
20622;BME280;10470;42.670;23.354;2023-02-03T01:48:18;95076.16;;;2.48;100.00
20622;BME280;10470;42.670;23.354;2023-02-03T01:51:04;95085.81;;;2.24;100.00
20622;BME280;10470;42.670;23.354;2023-02-03T01:53:51;95079.28;;;2.29;100.00
20622;BME280;10470;42.670;23.354;2023-02-03T01:56:39;95077.75;;;2.31;100.00
20622;BME280;10470;42.670;23.354;2023-02-03T01:59:28;95086.19;;;2.30;100.00
20622;BME280;10470;42.670;23.354;2023-02-03T02:02:15;95083.50;;;2.23;100.00
20622;BME280;10470;42.670;23.354;2023-02-03T02:05:05;95074.31;;;2.24;100.00
20622;BME280;10470;42.670;23.354;2023-02-03T02:07:51;95086.56;;;2.32;100.00
20622;BME280;10470;42.670;23.354;2023-02-03T02:10:36;95085.41;;;2.26;100.00
20622;BME280;10470;42.670;23.354;2023-02-03T02:13:22;95094.66;;;2.21;100.00
20622;BME280;10470;42.670;23.354;2023-02-03T02:28:37;95107.31;;;2.24;100.00
20622;BME280;10470;42.670;23.354;2023-02-03T02:31:50;95108.09;;;2.25;100.00
20622;BME280;10470;42.670;23.354;2023-02-03T02:37:48;95110.75;;;2.28;100.00
20622;BME280;10470;42.670;23.354;2023-02-03T02:40:41;95116.16;;;2.14;100.00
20622;BME280;10470;42.670;23.354;2023-02-03T02:43:41;95124.22;;;2.21;100.00
20622;BME280;10470;42.670;23.354;2023-02-03T02:49:37;95119.59;;;2.32;100.00
20622;BME280;10470;42.670;23.354;2023-02-03T02:52:29;95131.53;;;2.13;100.00
20622;BME280;10470;42.670;23.354;2023-02-03T02:55:20;95119.22;;;2.30;100.00
20622;BME280;10470;42.670;23.354;2023-02-03T02:58:11;95117.31;;;2.24;100.00
20622;BME280;10470;42.670;23.354;2023-02-03T03:00:58;95101.19;;;2.09;100.00
20622;BME280;10470;42.670;23.354;2023-02-03T03:03:44;95118.84;;;2.17;100.00
20622;BME280;10470;42.670;23.354;2023-02-03T03:06:33;95105.00;;;2.12;100.00
20622;BME280;10470;42.670;23.354;2023-02-03T03:09:35;95122.31;;;2.11;100.00
20622;BME280;10470;42.670;23.354;2023-02-03T03:12:29;95123.06;;;2.04;100.00
20622;BME280;10470;42.670;23.354;2023-02-03T03:15:22;95126.91;;;2.14;100.00
20622;BME280;10470;42.670;23.354;2023-02-03T03:18:17;95130.34;;;2.14;100.00
20622;BME280;10470;42.670;23.354;2023-02-03T03:21:04;95139.97;;;2.19;100.00
20622;BME280;10470;42.670;23.354;2023-02-03T03:23:53;95149.56;;;2.16;100.00
20622;BME280;10470;42.670;23.354;2023-02-03T03:26:48;95146.09;;;2.12;100.00
20622;BME280;10470;42.670;23.354;2023-02-03T03:29:48;95138.44;;;2.11;100.00
20622;BME280;10470;42.670;23.354;2023-02-03T03:32:37;95131.50;;;2.06;100.00
20622;BME280;10470;42.670;23.354;2023-02-03T03:35:37;95149.19;;;2.18;100.00
20622;BME280;10470;42.670;23.354;2023-02-03T03:38:51;95154.91;;;2.02;100.00
20622;BME280;10470;42.670;23.354;2023-02-03T03:41:46;95141.88;;;2.08;100.00
20622;BME280;10470;42.670;23.354;2023-02-03T03:44:52;95148.78;;;2.05;100.00
20622;BME280;10470;42.670;23.354;2023-02-03T03:47:46;95163.75;;;2.03;100.00
20622;BME280;10470;42.670;23.354;2023-02-03T03:50:38;95153.00;;;2.10;100.00
20622;BME280;10470;42.670;23.354;2023-02-03T03:53:27;95159.16;;;2.10;100.00
20622;BME280;10470;42.670;23.354;2023-02-03T03:56:28;95156.06;;;2.01;100.00
20622;BME280;10470;42.670;23.354;2023-02-03T03:59:19;95153.41;;;2.08;100.00
20622;BME280;10470;42.670;23.354;2023-02-03T04:02:07;95148.78;;;2.05;100.00
20622;BME280;10470;42.670;23.354;2023-02-03T04:04:53;95164.13;;;1.94;100.00
20622;BME280;10470;42.670;23.354;2023-02-03T04:07:44;95164.13;;;2.12;100.00
20622;BME280;10470;42.670;23.354;2023-02-03T04:10:38;95180.25;;;2.01;100.00
20622;BME280;10470;42.670;23.354;2023-02-03T04:13:24;95177.19;;;1.99;100.00
20622;BME280;10470;42.670;23.354;2023-02-03T04:16:09;95172.56;;;1.96;100.00
20622;BME280;10470;42.670;23.354;2023-02-03T04:18:56;95186.00;;;2.00;100.00
20622;BME280;10470;42.670;23.354;2023-02-03T04:21:41;95194.06;;;2.00;100.00
20622;BME280;10470;42.670;23.354;2023-02-03T04:24:27;95211.72;;;1.93;100.00
20622;BME280;10470;42.670;23.354;2023-02-03T04:27:12;95209.06;;;2.08;100.00
20622;BME280;10470;42.670;23.354;2023-02-03T04:29:57;95207.16;;;2.08;100.00
20622;BME280;10470;42.670;23.354;2023-02-03T04:32:44;95214.06;;;2.06;100.00
20622;BME280;10470;42.670;23.354;2023-02-03T04:35:29;95219.41;;;2.02;100.00
20622;BME280;10470;42.670;23.354;2023-02-03T04:38:15;95216.72;;;2.09;100.00
20622;BME280;10470;42.670;23.354;2023-02-03T04:41:00;95218.66;;;2.05;100.00
20622;BME280;10470;42.670;23.354;2023-02-03T04:43:46;95231.72;;;2.10;100.00
20622;BME280;10470;42.670;23.354;2023-02-03T04:46:31;95228.66;;;2.08;100.00
20622;BME280;10470;42.670;23.354;2023-02-03T04:49:17;95237.13;;;2.21;100.00
20622;BME280;10470;42.670;23.354;2023-02-03T04:52:02;95237.88;;;2.11;100.00
20622;BME280;10470;42.670;23.354;2023-02-03T04:54:48;95238.63;;;2.08;100.00
20622;BME280;10470;42.670;23.354;2023-02-03T04:57:33;95242.44;;;2.07;100.00
20622;BME280;10470;42.670;23.354;2023-02-03T05:00:19;95231.31;;;2.05;100.00
20622;BME280;10470;42.670;23.354;2023-02-03T05:03:05;95248.63;;;2.14;100.00
20622;BME280;10470;42.670;23.354;2023-02-03T05:05:50;95255.13;;;2.06;100.00
20622;BME280;10470;42.670;23.354;2023-02-03T05:08:35;95245.94;;;2.11;100.00
20622;BME280;10470;42.670;23.354;2023-02-03T05:11:21;95252.84;;;2.12;100.00
20622;BME280;10470;42.670;23.354;2023-02-03T05:14:07;95259.34;;;2.07;100.00
20622;BME280;10470;42.670;23.354;2023-02-03T05:16:52;95262.41;;;1.99;100.00
20622;BME280;10470;42.670;23.354;2023-02-03T05:19:37;95272.03;;;2.17;100.00
20622;BME280;10470;42.670;23.354;2023-02-03T05:22:23;95268.56;;;2.03;100.00
20622;BME280;10470;42.670;23.354;2023-02-03T05:25:09;95274.72;;;2.10;100.00
20622;BME280;10470;42.670;23.354;2023-02-03T05:27:54;95267.81;;;2.06;100.00
20622;BME280;10470;42.670;23.354;2023-02-03T05:30:40;95269.34;;;2.10;100.00
20622;BME280;10470;42.670;23.354;2023-02-03T05:33:25;95270.50;;;2.20;100.00
20622;BME280;10470;42.670;23.354;2023-02-03T05:36:11;95260.06;;;1.90;100.00
20622;BME280;10470;42.670;23.354;2023-02-03T05:38:57;95268.19;;;2.08;100.00
20622;BME280;10470;42.670;23.354;2023-02-03T05:41:43;95265.47;;;2.01;100.00
20622;BME280;10470;42.670;23.354;2023-02-03T05:44:37;95267.41;;;2.04;100.00
20622;BME280;10470;42.670;23.354;2023-02-03T05:47:22;95276.19;;;1.90;100.00
20622;BME280;10470;42.670;23.354;2023-02-03T05:50:08;95273.16;;;1.99;100.00
20622;BME280;10470;42.670;23.354;2023-02-03T05:52:54;95283.06;;;1.84;100.00
20622;BME280;10470;42.670;23.354;2023-02-03T05:55:39;95282.34;;;1.90;100.00
20622;BME280;10470;42.670;23.354;2023-02-03T05:58:25;95296.97;;;2.00;100.00
20622;BME280;10470;42.670;23.354;2023-02-03T06:01:11;95291.53;;;1.86;100.00
20622;BME280;10470;42.670;23.354;2023-02-03T06:03:56;95282.66;;;1.78;100.00
20622;BME280;10470;42.670;23.354;2023-02-03T06:06:42;95291.16;;;1.94;100.00
20622;BME280;10470;42.670;23.354;2023-02-03T06:09:27;95300.78;;;1.95;100.00
20622;BME280;10470;42.670;23.354;2023-02-03T06:12:14;95288.47;;;1.87;100.00
20622;BME280;10470;42.670;23.354;2023-02-03T06:14:59;95286.94;;;1.90;100.00
20622;BME280;10470;42.670;23.354;2023-02-03T06:17:46;95297.28;;;1.84;100.00
20622;BME280;10470;42.670;23.354;2023-02-03T06:20:33;95305.75;;;1.97;100.00
20622;BME280;10470;42.670;23.354;2023-02-03T06:23:18;95304.59;;;1.94;100.00
20622;BME280;10470;42.670;23.354;2023-02-03T06:26:04;95308.44;;;1.97;100.00
20622;BME280;10470;42.670;23.354;2023-02-03T06:28:49;95310.78;;;2.06;100.00
20622;BME280;10470;42.670;23.354;2023-02-03T06:31:35;95310.03;;;2.09;100.00
20622;BME280;10470;42.670;23.354;2023-02-03T06:34:20;95321.59;;;2.24;100.00
20622;BME280;10470;42.670;23.354;2023-02-03T06:37:06;95327.75;;;2.24;100.00
20622;BME280;10470;42.670;23.354;2023-02-03T06:39:52;95341.94;;;2.25;100.00
20622;BME280;10470;42.670;23.354;2023-02-03T06:42:37;95333.94;;;2.46;100.00
20622;BME280;10470;42.670;23.354;2023-02-03T06:45:22;95336.25;;;2.48;100.00
20622;BME280;10470;42.670;23.354;2023-02-03T06:48:09;95348.97;;;2.58;100.00
20622;BME280;10470;42.670;23.354;2023-02-03T06:50:54;95354.41;;;2.97;100.00
20622;BME280;10470;42.670;23.354;2023-02-03T06:53:40;95356.69;;;2.84;100.00
20622;BME280;10470;42.670;23.354;2023-02-03T06:56:25;95356.31;;;2.97;100.00
20622;BME280;10470;42.670;23.354;2023-02-03T06:59:11;95350.19;;;2.96;100.00
20622;BME280;10470;42.670;23.354;2023-02-03T07:01:56;95344.41;;;3.01;100.00
20622;BME280;10470;42.670;23.354;2023-02-03T07:04:42;95355.91;;;2.84;100.00
20622;BME280;10470;42.670;23.354;2023-02-03T07:07:29;95334.41;;;2.95;100.00
20622;BME280;10470;42.670;23.354;2023-02-03T07:10:16;95335.94;;;3.03;100.00
20622;BME280;10470;42.670;23.354;2023-02-03T07:13:04;95324.78;;;2.76;100.00
20622;BME280;10470;42.670;23.354;2023-02-03T07:15:50;95306.34;;;2.81;100.00
20622;BME280;10470;42.670;23.354;2023-02-03T07:18:35;95324.78;;;2.90;100.00
20622;BME280;10470;42.670;23.354;2023-02-03T07:21:21;95317.09;;;3.03;100.00
20622;BME280;10470;42.670;23.354;2023-02-03T07:24:06;95330.94;;;2.87;100.00
20622;BME280;10470;42.670;23.354;2023-02-03T07:26:52;95338.25;;;2.87;100.00
20622;BME280;10470;42.670;23.354;2023-02-03T07:29:37;95332.84;;;2.90;100.00
20622;BME280;10470;42.670;23.354;2023-02-03T07:32:23;95333.25;;;3.10;100.00
20622;BME280;10470;42.670;23.354;2023-02-03T07:35:08;95340.56;;;3.20;100.00
20622;BME280;10470;42.670;23.354;2023-02-03T07:37:54;95330.94;;;3.23;100.00
20622;BME280;10470;42.670;23.354;2023-02-03T07:40:39;95339.78;;;3.20;100.00
20622;BME280;10470;42.670;23.354;2023-02-03T07:43:25;95353.66;;;3.22;100.00
20622;BME280;10470;42.670;23.354;2023-02-03T07:46:10;95329.78;;;3.13;100.00
20622;BME280;10470;42.670;23.354;2023-02-03T07:48:55;95353.66;;;3.22;100.00
20622;BME280;10470;42.670;23.354;2023-02-03T07:51:41;95362.47;;;3.26;100.00
20622;BME280;10470;42.670;23.354;2023-02-03T07:54:26;95359.81;;;3.30;100.00
20622;BME280;10470;42.670;23.354;2023-02-03T07:57:12;95368.66;;;3.19;100.00
20622;BME280;10470;42.670;23.354;2023-02-03T07:59:57;95365.94;;;3.41;100.00
20622;BME280;10470;42.670;23.354;2023-02-03T08:02:43;95360.16;;;3.14;100.00
20622;BME280;10470;42.670;23.354;2023-02-03T08:05:28;95365.19;;;3.40;100.00
20622;BME280;10470;42.670;23.354;2023-02-03T08:08:14;95379.00;;;3.32;100.00
20622;BME280;10470;42.670;23.354;2023-02-03T08:11:00;95372.88;;;3.27;100.00
20622;BME280;10470;42.670;23.354;2023-02-03T08:13:45;95372.09;;;3.38;100.00
20622;BME280;10470;42.670;23.354;2023-02-03T08:16:31;95387.09;;;3.49;100.00
20622;BME280;10470;42.670;23.354;2023-02-03T08:19:16;95377.84;;;3.40;100.00
20622;BME280;10470;42.670;23.354;2023-02-03T08:22:02;95380.16;;;3.34;100.00
20622;BME280;10470;42.670;23.354;2023-02-03T08:24:47;95395.16;;;3.82;100.00
20622;BME280;10470;42.670;23.354;2023-02-03T08:27:33;95390.91;;;3.77;100.00
20622;BME280;10470;42.670;23.354;2023-02-03T08:30:19;95397.09;;;3.67;100.00
20622;BME280;10470;42.670;23.354;2023-02-03T08:33:04;95394.78;;;3.69;100.00
20622;BME280;10470;42.670;23.354;2023-02-03T08:35:50;95392.03;;;3.83;100.00
20622;BME280;10470;42.670;23.354;2023-02-03T08:38:36;95407.47;;;3.79;100.00
20622;BME280;10470;42.670;23.354;2023-02-03T08:41:22;95399.00;;;3.74;100.00
20622;BME280;10470;42.670;23.354;2023-02-03T08:44:07;95408.63;;;3.75;100.00
20622;BME280;10470;42.670;23.354;2023-02-03T08:46:53;95410.91;;;3.90;100.00
20622;BME280;10470;42.670;23.354;2023-02-03T08:49:38;95411.66;;;3.91;100.00
20622;BME280;10470;42.670;23.354;2023-02-03T08:52:24;95413.19;;;4.03;100.00
20622;BME280;10470;42.670;23.354;2023-02-03T08:55:09;95419.72;;;4.09;100.00
20622;BME280;10470;42.670;23.354;2023-02-03T08:57:56;95423.56;;;4.19;100.00
20622;BME280;10470;42.670;23.354;2023-02-03T09:00:41;95426.28;;;4.08;100.00
20622;BME280;10470;42.670;23.354;2023-02-03T09:03:27;95415.91;;;4.03;100.00
20622;BME280;10470;42.670;23.354;2023-02-03T09:06:13;95413.16;;;4.13;100.00
20622;BME280;10470;42.670;23.354;2023-02-03T09:09:01;95434.00;;;3.99;100.00
20622;BME280;10470;42.670;23.354;2023-02-03T09:11:46;95425.84;;;4.27;100.00
20622;BME280;10470;42.670;23.354;2023-02-03T09:14:33;95425.84;;;4.31;100.00
20622;BME280;10470;42.670;23.354;2023-02-03T09:17:18;95417.44;;;4.00;100.00
20622;BME280;10470;42.670;23.354;2023-02-03T09:20:05;95421.31;;;3.92;100.00
20622;BME280;10470;42.670;23.354;2023-02-03T09:22:50;95408.91;;;4.12;100.00
20622;BME280;10470;42.670;23.354;2023-02-03T09:25:36;95405.81;;;4.21;100.00
20622;BME280;10470;42.670;23.354;2023-02-03T09:28:21;95422.44;;;3.98;100.00
20622;BME280;10470;42.670;23.354;2023-02-03T09:31:09;95401.56;;;4.27;100.00
20622;BME280;10470;42.670;23.354;2023-02-03T09:33:55;95417.75;;;4.31;100.00
20622;BME280;10470;42.670;23.354;2023-02-03T09:36:40;95411.94;;;4.36;100.00
20622;BME280;10470;42.670;23.354;2023-02-03T09:39:26;95404.22;;;4.34;100.00
20622;BME280;10470;42.670;23.354;2023-02-03T09:45:28;95404.63;;;4.36;100.00
20622;BME280;10470;42.670;23.354;2023-02-03T09:48:23;95420.75;;;4.47;100.00
20622;BME280;10470;42.670;23.354;2023-02-03T09:51:25;95404.25;;;4.27;100.00
20622;BME280;10470;42.670;23.354;2023-02-03T09:54:26;95405.41;;;4.26;100.00
20622;BME280;10470;42.670;23.354;2023-02-03T09:57:24;95397.75;;;4.07;100.00
20622;BME280;10470;42.670;23.354;2023-02-03T10:00:20;95401.53;;;4.34;100.00
20622;BME280;10470;42.670;23.354;2023-02-03T10:09:34;95398.34;;;4.61;100.00
20622;BME280;10470;42.670;23.354;2023-02-03T10:18:27;95393.00;;;4.47;100.00
20622;BME280;10470;42.670;23.354;2023-02-03T10:21:35;95394.94;;;4.50;100.00
20622;BME280;10470;42.670;23.354;2023-02-03T10:24:39;95379.41;;;4.68;100.00
20622;BME280;10470;42.670;23.354;2023-02-03T10:27:27;95391.69;;;4.76;100.00
20622;BME280;10470;42.670;23.354;2023-02-03T10:30:25;95378.53;;;4.86;100.00
20622;BME280;10470;42.670;23.354;2023-02-03T10:33:13;95380.84;;;4.91;100.00
20622;BME280;10470;42.670;23.354;2023-02-03T10:36:19;95368.56;;;4.75;100.00
20622;BME280;10470;42.670;23.354;2023-02-03T10:39:28;95370.91;;;4.73;100.00
20622;BME280;10470;42.670;23.354;2023-02-03T10:42:15;95360.97;;;4.59;100.00
20622;BME280;10470;42.670;23.354;2023-02-03T10:45:02;95377.16;;;4.59;100.00
20622;BME280;10470;42.670;23.354;2023-02-03T10:47:54;95359.03;;;4.60;100.00
20622;BME280;10470;42.670;23.354;2023-02-03T10:50:43;95382.22;;;4.47;100.00
20622;BME280;10470;42.670;23.354;2023-02-03T10:53:35;95367.63;;;4.30;100.00
20622;BME280;10470;42.670;23.354;2023-02-03T10:56:26;95369.03;;;4.63;100.00
20622;BME280;10470;42.670;23.354;2023-02-03T10:59:27;95358.66;;;4.54;100.00
20622;BME280;10470;42.670;23.354;2023-02-03T11:02:33;95379.19;;;4.34;100.00
20622;BME280;10470;42.670;23.354;2023-02-03T11:05:20;95371.09;;;4.30;100.00
20622;BME280;10470;42.670;23.354;2023-02-03T11:08:16;95374.94;;;4.33;100.00
20622;BME280;10470;42.670;23.354;2023-02-03T11:11:07;95373.78;;;4.37;100.00
20622;BME280;10470;42.670;23.354;2023-02-03T11:13:55;95402.81;;;4.89;100.00
20622;BME280;10470;42.670;23.354;2023-02-03T11:16:53;95366.53;;;4.90;100.00
20622;BME280;10470;42.670;23.354;2023-02-03T11:19:38;95362.34;;;4.82;100.00
20622;BME280;10470;42.670;23.354;2023-02-03T11:22:36;95358.94;;;4.78;100.00
20622;BME280;10470;42.670;23.354;2023-02-03T11:25:26;95377.41;;;4.83;100.00
20622;BME280;10470;42.670;23.354;2023-02-03T11:28:14;95359.28;;;5.36;100.00
20622;BME280;10470;42.670;23.354;2023-02-03T11:30:59;95353.38;;;5.86;100.00
20622;BME280;10470;42.670;23.354;2023-02-03T11:33:47;95343.69;;;5.92;100.00
20622;BME280;10470;42.670;23.354;2023-02-03T11:36:34;95338.25;;;5.96;100.00
20622;BME280;10470;42.670;23.354;2023-02-03T11:39:26;95348.00;;;7.09;98.73
20622;BME280;10470;42.670;23.354;2023-02-03T11:42:22;95351.78;;;6.61;90.09
20622;BME280;10470;42.670;23.354;2023-02-03T11:54:55;95335.81;;;5.25;92.88
20622;BME280;10470;42.670;23.354;2023-02-03T12:10:05;95337.22;;;5.41;78.24
20622;BME280;10470;42.670;23.354;2023-02-03T12:31:19;95358.97;;;6.44;63.02
20622;BME280;10470;42.670;23.354;2023-02-03T12:37:04;95356.75;;;6.66;59.07
20622;BME280;10470;42.670;23.354;2023-02-03T12:40:04;95362.78;;;5.74;62.96
20622;BME280;10470;42.670;23.354;2023-02-03T12:43:11;95345.72;;;4.91;66.49
20622;BME280;10470;42.670;23.354;2023-02-03T12:58:18;95327.31;;;5.68;75.05
20622;BME280;10470;42.670;23.354;2023-02-03T13:01:22;95310.56;;;6.49;74.26
20622;BME280;10470;42.670;23.354;2023-02-03T13:07:49;95313.53;;;5.97;66.98
20622;BME280;10470;42.670;23.354;2023-02-03T13:10:40;95335.81;;;5.67;76.03
20622;BME280;10470;42.670;23.354;2023-02-03T13:13:41;95317.72;;;5.64;80.74
20622;BME280;10470;42.670;23.354;2023-02-03T13:16:34;95333.25;;;6.59;81.36
20622;BME280;10470;42.670;23.354;2023-02-03T13:19:24;95308.41;;;5.27;89.43
20622;BME280;10470;42.670;23.354;2023-02-03T13:22:12;95313.34;;;6.42;91.06
20622;BME280;10470;42.670;23.354;2023-02-03T13:25:24;95307.63;;;6.06;83.97
20622;BME280;10470;42.670;23.354;2023-02-03T13:34:39;95304.00;;;5.44;96.09
20622;BME280;10470;42.670;23.354;2023-02-03T13:37:33;95313.16;;;7.11;90.20
20622;BME280;10470;42.670;23.354;2023-02-03T13:43:27;95314.53;;;8.66;73.92
20622;BME280;10470;42.670;23.354;2023-02-03T13:46:23;95312.81;;;6.54;79.32
20622;BME280;10470;42.670;23.354;2023-02-03T13:49:09;95307.47;;;6.17;86.40
20622;BME280;10470;42.670;23.354;2023-02-03T13:52:04;95309.22;;;5.62;88.44
20622;BME280;10470;42.670;23.354;2023-02-03T13:54:50;95315.06;;;5.57;94.23
20622;BME280;10470;42.670;23.354;2023-02-03T13:57:36;95307.22;;;4.79;100.00
20622;BME280;10470;42.670;23.354;2023-02-03T14:03:39;95304.25;;;4.63;100.00
20622;BME280;10470;42.670;23.354;2023-02-03T14:18:31;95298.78;;;4.74;100.00
20622;BME280;10470;42.670;23.354;2023-02-03T14:21:19;95288.81;;;4.67;100.00
20622;BME280;10470;42.670;23.354;2023-02-03T14:24:08;95293.53;;;4.52;100.00
20622;BME280;10470;42.670;23.354;2023-02-03T14:26:56;95275.00;;;4.58;100.00
20622;BME280;10470;42.670;23.354;2023-02-03T14:29:42;95276.38;;;4.18;100.00
20622;BME280;10470;42.670;23.354;2023-02-03T14:35:38;95282.19;;;4.09;100.00
20622;BME280;10470;42.670;23.354;2023-02-03T14:38:30;95279.84;;;4.22;100.00
20622;BME280;10470;42.670;23.354;2023-02-03T14:41:20;95287.50;;;4.27;100.00
20622;BME280;10470;42.670;23.354;2023-02-03T14:48:41;95290.63;;;4.22;100.00
20622;BME280;10470;42.670;23.354;2023-02-03T15:06:00;95269.91;;;4.08;100.00
20622;BME280;10470;42.670;23.354;2023-02-03T15:08:47;95262.59;;;4.01;100.00
20622;BME280;10470;42.670;23.354;2023-02-03T15:11:33;95252.97;;;3.97;100.00
20622;BME280;10470;42.670;23.354;2023-02-03T15:14:29;95247.94;;;4.06;100.00
20622;BME280;10470;42.670;23.354;2023-02-03T15:17:26;95243.34;;;4.03;100.00
20622;BME280;10470;42.670;23.354;2023-02-03T15:20:31;95239.19;;;3.87;100.00
20622;BME280;10470;42.670;23.354;2023-02-03T15:23:19;95219.56;;;3.83;100.00
20622;BME280;10470;42.670;23.354;2023-02-03T15:26:20;95212.66;;;3.75;100.00
20622;BME280;10470;42.670;23.354;2023-02-03T15:29:18;95225.75;;;3.77;100.00
20622;BME280;10470;42.670;23.354;2023-02-03T15:32:13;95199.63;;;3.66;100.00
20622;BME280;10470;42.670;23.354;2023-02-03T15:35:03;95213.03;;;3.77;100.00
20622;BME280;10470;42.670;23.354;2023-02-03T15:38:00;95210.75;;;3.72;100.00
20622;BME280;10470;42.670;23.354;2023-02-03T15:40:49;95212.38;;;3.52;100.00
20622;BME280;10470;42.670;23.354;2023-02-03T15:43:36;95209.63;;;3.62;100.00
20622;BME280;10470;42.670;23.354;2023-02-03T15:49:15;95201.97;;;3.50;100.00
20622;BME280;10470;42.670;23.354;2023-02-03T15:52:10;95202.00;;;3.46;100.00
20622;BME280;10470;42.670;23.354;2023-02-03T15:55:12;95195.84;;;3.49;100.00
20622;BME280;10470;42.670;23.354;2023-02-03T15:58:01;95205.09;;;3.41;100.00
20622;BME280;10470;42.670;23.354;2023-02-03T16:00:51;95187.78;;;3.39;100.00
20622;BME280;10470;42.670;23.354;2023-02-03T16:03:40;95204.34;;;3.34;100.00
20622;BME280;10470;42.670;23.354;2023-02-03T16:06:30;95196.28;;;3.34;100.00
20622;BME280;10470;42.670;23.354;2023-02-03T16:09:29;95194.78;;;3.22;100.00
20622;BME280;10470;42.670;23.354;2023-02-03T16:12:29;95187.84;;;3.28;100.00
20622;BME280;10470;42.670;23.354;2023-02-03T16:15:23;95182.84;;;3.30;100.00
20622;BME280;10470;42.670;23.354;2023-02-03T16:18:16;95184.75;;;3.26;100.00
20622;BME280;10470;42.670;23.354;2023-02-03T16:21:05;95185.13;;;3.35;100.00
20622;BME280;10470;42.670;23.354;2023-02-03T16:23:51;95182.88;;;3.12;100.00
20622;BME280;10470;42.670;23.354;2023-02-03T16:26:36;95185.16;;;3.24;100.00
20622;BME280;10470;42.670;23.354;2023-02-03T16:29:27;95177.47;;;3.23;100.00
20622;BME280;10470;42.670;23.354;2023-02-03T16:32:32;95162.47;;;3.18;100.00
20622;BME280;10470;42.670;23.354;2023-02-03T16:35:36;95166.31;;;3.14;100.00
20622;BME280;10470;42.670;23.354;2023-02-03T16:38:47;95152.09;;;3.20;100.00
20622;BME280;10470;42.670;23.354;2023-02-03T16:41:51;95144.03;;;3.06;100.00
20622;BME280;10470;42.670;23.354;2023-02-03T16:44:55;95128.31;;;3.04;100.00
20622;BME280;10470;42.670;23.354;2023-02-03T16:47:59;95118.31;;;3.01;100.00
20622;BME280;10470;42.670;23.354;2023-02-03T16:51:09;95122.91;;;3.04;100.00
20622;BME280;10470;42.670;23.354;2023-02-03T16:53:55;95126.34;;;3.09;100.00
20622;BME280;10470;42.670;23.354;2023-02-03T16:56:41;95114.47;;;3.02;100.00
20622;BME280;10470;42.670;23.354;2023-02-03T16:59:26;95110.19;;;3.09;100.00
20622;BME280;10470;42.670;23.354;2023-02-03T17:02:12;95104.06;;;3.01;100.00
20622;BME280;10470;42.670;23.354;2023-02-03T17:04:57;95094.09;;;3.01;100.00
20622;BME280;10470;42.670;23.354;2023-02-03T17:07:43;95100.22;;;3.09;100.00